createdAt,value
2022-12-31T00:00:27.202Z,3.98
2022-12-31T00:05:50.578Z,4.00
2022-12-31T00:10:53.691Z,3.94
2022-12-31T00:16:12.195Z,3.88
2022-12-31T00:21:17.116Z,3.88
2022-12-31T00:26:24.910Z,3.91
2022-12-31T00:31:30.622Z,3.91
2022-12-31T00:36:39.255Z,3.88
2022-12-31T00:41:44.262Z,3.87
2022-12-31T00:46:48.499Z,3.92
2022-12-31T00:51:51.600Z,4.01
2022-12-31T00:56:54.678Z,4.09
2022-12-31T01:01:57.829Z,4.12
2022-12-31T01:07:00.989Z,4.11
2022-12-31T01:12:04.398Z,4.11
2022-12-31T01:17:08.171Z,4.15
2022-12-31T01:22:11.297Z,4.22
2022-12-31T01:27:14.616Z,4.27
2022-12-31T01:32:18.244Z,4.28
2022-12-31T01:37:21.379Z,4.25
2022-12-31T01:42:24.464Z,4.24
2022-12-31T01:47:42.605Z,4.27
2022-12-31T01:52:50.080Z,4.34
2022-12-31T01:57:58.556Z,4.38
2022-12-31T02:03:02.686Z,4.39
2022-12-31T02:08:06.928Z,4.37
2022-12-31T02:13:10.329Z,4.38
2022-12-31T02:18:46.038Z,4.41
2022-12-31T02:24:10.156Z,4.46
2022-12-31T02:29:48.725Z,4.53
2022-12-31T02:34:59.082Z,4.53
2022-12-31T02:40:04.108Z,4.50
2022-12-31T02:45:08.245Z,4.51
2022-12-31T02:50:31.878Z,4.57
2022-12-31T02:55:58.081Z,4.66
2022-12-31T03:01:19.989Z,4.75
2022-12-31T03:06:23.292Z,4.80
2022-12-31T03:11:45.037Z,4.80
2022-12-31T03:16:49.233Z,4.83
2022-12-31T03:22:10.788Z,4.88
2022-12-31T03:27:13.925Z,4.98
2022-12-31T03:32:17.059Z,5.08
2022-12-31T03:37:20.255Z,5.14
2022-12-31T03:42:23.426Z,5.17
2022-12-31T03:47:26.645Z,5.19
2022-12-31T03:52:29.771Z,5.26
2022-12-31T03:57:33.663Z,5.36
2022-12-31T04:02:37.288Z,5.51
2022-12-31T04:07:41.766Z,5.62
2022-12-31T04:12:45.412Z,5.69
2022-12-31T04:17:49.241Z,5.74
2022-12-31T04:22:52.399Z,5.83
2022-12-31T04:27:55.487Z,5.93
2022-12-31T04:32:58.602Z,6.02
2022-12-31T04:38:01.731Z,6.07
2022-12-31T04:43:04.795Z,6.12
2022-12-31T04:48:07.863Z,6.17
2022-12-31T04:53:10.942Z,6.24
2022-12-31T04:58:14.046Z,6.33
2022-12-31T05:03:18.562Z,6.40
2022-12-31T05:08:21.967Z,6.45
2022-12-31T05:13:29.499Z,6.53
2022-12-31T05:18:37.023Z,6.63
2022-12-31T05:23:40.196Z,6.72
2022-12-31T05:28:43.359Z,6.77
2022-12-31T05:33:46.513Z,6.79
2022-12-31T05:38:49.602Z,6.81
2022-12-31T05:43:52.671Z,6.83
2022-12-31T05:48:55.780Z,6.88
2022-12-31T05:53:58.986Z,6.97
2022-12-31T05:59:02.129Z,7.08
2022-12-31T06:04:06.185Z,7.22
2022-12-31T06:09:09.505Z,7.31
2022-12-31T06:14:13.014Z,7.37
2022-12-31T06:19:16.186Z,7.38
2022-12-31T06:24:19.379Z,7.36
2022-12-31T06:29:22.474Z,7.34
2022-12-31T06:34:25.648Z,7.34
2022-12-31T06:39:28.912Z,7.40
2022-12-31T06:44:32.039Z,7.43
2022-12-31T06:49:35.157Z,7.42
2022-12-31T06:54:38.747Z,7.47
2022-12-31T06:59:42.269Z,7.54
2022-12-31T07:05:10.449Z,7.64
2022-12-31T07:10:30.091Z,7.72
2022-12-31T07:15:59.110Z,7.78
2022-12-31T07:21:02.847Z,7.82
2022-12-31T07:26:35.735Z,7.87
2022-12-31T07:32:08.065Z,7.96
2022-12-31T07:37:36.437Z,8.07
2022-12-31T07:42:57.137Z,8.14
2022-12-31T07:48:02.838Z,8.18
2022-12-31T07:53:06.492Z,8.22
2022-12-31T07:58:22.416Z,8.27
2022-12-31T08:03:40.796Z,8.35
2022-12-31T08:08:49.873Z,8.46
2022-12-31T08:13:56.410Z,8.55
2022-12-31T08:18:59.785Z,8.57
2022-12-31T08:24:21.962Z,8.59
2022-12-31T08:29:53.189Z,8.65
2022-12-31T08:35:15.503Z,8.76
2022-12-31T08:40:50.436Z,8.86
2022-12-31T08:45:58.073Z,8.95
2022-12-31T08:51:01.492Z,9.03
2022-12-31T08:56:15.483Z,9.15
2022-12-31T09:01:24.791Z,9.32
2022-12-31T09:06:38.234Z,9.54
2022-12-31T09:12:06.266Z,9.74
2022-12-31T09:17:33.896Z,9.88
2022-12-31T09:22:38.728Z,9.93
2022-12-31T09:28:11.666Z,9.96
2022-12-31T09:33:36.726Z,9.99
2022-12-31T09:38:39.785Z,10.00
2022-12-31T09:43:48.843Z,9.97
2022-12-31T09:49:01.231Z,9.96
2022-12-31T09:54:04.323Z,9.99
2022-12-31T09:59:17.980Z,10.04
2022-12-31T10:04:48.303Z,10.12
2022-12-31T10:10:12.996Z,10.25
2022-12-31T10:15:49.796Z,10.32
2022-12-31T10:21:11.723Z,10.37
2022-12-31T10:26:33.652Z,10.49
2022-12-31T10:32:31.682Z,10.65
2022-12-31T10:37:56.673Z,10.79
2022-12-31T10:43:34.178Z,10.89
2022-12-31T10:48:54.979Z,11.01
2022-12-31T10:54:07.332Z,11.12
2022-12-31T11:05:49.090Z,11.43
2022-12-31T11:11:23.823Z,11.46
2022-12-31T11:17:03.580Z,11.48
2022-12-31T11:22:33.723Z,11.51
2022-12-31T11:27:49.620Z,11.54
2022-12-31T11:33:20.585Z,11.55
2022-12-31T11:38:23.687Z,11.54
2022-12-31T11:43:54.707Z,11.60
2022-12-31T11:49:00.607Z,11.72
2022-12-31T11:54:26.020Z,11.84
2022-12-31T11:59:38.411Z,11.91
2022-12-31T12:04:41.824Z,11.97
2022-12-31T12:09:49.221Z,12.04
2022-12-31T12:14:55.035Z,12.13
2022-12-31T12:20:15.286Z,12.21
2022-12-31T12:25:22.504Z,12.21
2022-12-31T12:30:28.230Z,12.14
2022-12-31T12:35:34.175Z,12.08
2022-12-31T12:40:59.041Z,12.06
2022-12-31T12:46:42.593Z,12.06
2022-12-31T12:52:16.987Z,12.05
2022-12-31T12:57:47.666Z,12.06
2022-12-31T13:03:02.178Z,12.08
2022-12-31T13:08:15.127Z,12.08
2022-12-31T13:13:47.692Z,12.06
2022-12-31T13:19:04.734Z,12.07
2022-12-31T13:24:32.837Z,12.10
2022-12-31T13:29:49.120Z,12.11
2022-12-31T13:35:10.893Z,12.09
2022-12-31T13:41:23.993Z,12.09
2022-12-31T13:47:04.807Z,12.12
2022-12-31T13:52:35.330Z,12.16
2022-12-31T13:58:11.639Z,12.17
2022-12-31T14:03:31.654Z,12.19
2022-12-31T14:09:02.431Z,12.31
2022-12-31T14:14:42.419Z,12.37
2022-12-31T14:20:06.369Z,12.39
2022-12-31T14:26:01.757Z,12.44
2022-12-31T14:31:20.159Z,12.54
2022-12-31T14:37:04.557Z,12.61
2022-12-31T14:42:34.938Z,12.65
2022-12-31T14:47:55.734Z,12.69
2022-12-31T14:53:33.671Z,12.74
2022-12-31T14:58:39.652Z,12.75
2022-12-31T15:03:45.994Z,12.81
2022-12-31T15:09:08.800Z,12.82
2022-12-31T15:14:36.899Z,12.85
2022-12-31T15:19:50.043Z,12.88
2022-12-31T15:32:26.142Z,12.87
2022-12-31T15:38:18.817Z,12.87
2022-12-31T15:43:25.228Z,12.91
2022-12-31T15:48:52.094Z,12.97
2022-12-31T15:53:58.320Z,13.04
2022-12-31T15:59:06.689Z,13.10
2022-12-31T16:04:42.826Z,13.14
2022-12-31T16:09:59.172Z,13.20
2022-12-31T16:15:03.355Z,13.28
2022-12-31T16:20:30.426Z,13.33
2022-12-31T16:25:34.119Z,13.42
2022-12-31T16:30:37.561Z,13.50
2022-12-31T16:35:41.096Z,13.57
2022-12-31T16:41:04.204Z,13.61
2022-12-31T16:46:10.342Z,13.55
2022-12-31T16:51:21.346Z,13.51
2022-12-31T16:56:36.699Z,13.49
2022-12-31T17:01:40.042Z,13.47
2022-12-31T17:06:44.248Z,13.49
2022-12-31T17:11:56.476Z,13.53
2022-12-31T17:17:08.814Z,13.59
2022-12-31T17:22:34.236Z,13.64
2022-12-31T17:27:39.838Z,13.63
2022-12-31T17:32:45.534Z,13.60
2022-12-31T17:37:48.713Z,13.63
2022-12-31T17:42:52.063Z,13.61
2022-12-31T17:47:59.936Z,13.54
2022-12-31T17:53:11.225Z,13.48
2022-12-31T17:58:23.556Z,13.46
2022-12-31T18:03:30.972Z,13.46
2022-12-31T18:08:34.183Z,13.46
2022-12-31T18:13:37.399Z,13.45
2022-12-31T18:18:42.147Z,13.49
2022-12-31T18:23:47.992Z,13.56
2022-12-31T18:28:51.598Z,13.66
2022-12-31T18:33:57.112Z,13.73
2022-12-31T18:39:00.393Z,13.78
2022-12-31T18:44:03.743Z,13.86
2022-12-31T18:49:06.872Z,13.96
2022-12-31T18:54:12.330Z,14.01
2022-12-31T18:59:15.556Z,14.07
2022-12-31T19:04:27.092Z,14.11
2022-12-31T19:09:45.199Z,14.13
2022-12-31T19:14:49.470Z,14.18
2022-12-31T19:19:52.561Z,14.22
2022-12-31T19:24:55.692Z,14.24
2022-12-31T19:30:00.759Z,14.22
2022-12-31T19:35:04.290Z,14.23
2022-12-31T19:40:13.061Z,14.24
2022-12-31T19:45:21.595Z,14.23
2022-12-31T19:50:27.479Z,14.18
2022-12-31T19:55:33.066Z,14.15
2022-12-31T20:00:36.304Z,14.13
2022-12-31T20:05:39.529Z,14.15
2022-12-31T20:10:43.875Z,14.17
2022-12-31T20:15:48.006Z,14.16
2022-12-31T20:20:55.804Z,14.13
2022-12-31T20:26:00.488Z,14.11
2022-12-31T20:31:12.440Z,14.12
2022-12-31T20:36:17.759Z,14.11
2022-12-31T20:41:23.320Z,14.07
2022-12-31T20:46:29.890Z,14.01
2022-12-31T20:51:35.093Z,14.02
2022-12-31T20:56:41.319Z,14.05
2022-12-31T21:02:19.284Z,14.04
2022-12-31T21:07:07.962Z,14.04
2022-12-31T21:12:30.449Z,14.03
2022-12-31T21:17:33.617Z,14.05
2022-12-31T21:22:36.815Z,14.07
2022-12-31T21:27:40.037Z,14.08
2022-12-31T21:32:43.193Z,14.07
2022-12-31T21:37:58.424Z,14.03
2022-12-31T21:43:03.931Z,13.97
2022-12-31T21:48:20.546Z,13.95
2022-12-31T21:53:29.207Z,13.97
2022-12-31T21:58:36.758Z,13.98
2022-12-31T22:03:39.988Z,13.94
2022-12-31T22:08:44.864Z,13.90
2022-12-31T22:13:49.918Z,13.90
2022-12-31T22:18:55.762Z,13.92
2022-12-31T22:23:59.108Z,13.92
2022-12-31T22:29:02.271Z,13.93
2022-12-31T22:34:05.469Z,13.97
2022-12-31T22:39:44.732Z,14.03
2022-12-31T22:44:38.597Z,14.07
2022-12-31T22:49:41.727Z,14.10
2022-12-31T22:54:44.809Z,14.07
2022-12-31T22:59:47.978Z,14.05
2022-12-31T23:04:51.131Z,14.03
2022-12-31T23:10:12.884Z,14.02
2022-12-31T23:15:34.704Z,14.01
2022-12-31T23:20:57.173Z,13.97
2022-12-31T23:26:02.167Z,14.00
2022-12-31T23:31:06.840Z,14.04
2022-12-31T23:36:10.222Z,14.06
2022-12-31T23:41:15.754Z,14.05
2022-12-31T23:46:19.000Z,14.05
2022-12-31T23:51:22.384Z,14.07
2022-12-31T23:56:25.485Z,14.09
